Time;durP1;ratioP1;P1;durP2;ratioP2;P2;SDS_P1;SDS_P2;PMS_P1;PMS_P2;Temp;Humidity;BMP_temperature;BMP_pressure;BME280_temperature;BME280_humidity;BME280_pressure;Samples;Min_cycle;Max_cycle;Signal;HPM_P1;HPM_P2
2023/03/05 00:02:15;;;;;;;2.00;1.48;;;;;;;5.51;68.23;101601.84;5148242;28;20138;-80
2023/03/05 00:04:46;;;;;;;0.30;0.30;;;;;;;5.48;68.29;101602.69;5149678;28;20075;-79
2023/03/05 00:07:16;;;;;;;0.20;0.20;;;;;;;5.24;69.48;101600.75;5138318;28;20745;-80
2023/03/05 00:09:46;;;;;;;0.20;0.20;;;;;;;5.36;69.13;101590.44;5151272;28;20058;-80
2023/03/05 00:12:17;;;;;;;0.28;0.28;;;;;;;5.38;69.29;101592.19;5146202;28;20066;-80
2023/03/05 00:14:48;;;;;;;0.30;0.30;;;;;;;5.08;69.88;101593.66;5147356;28;20061;-80
2023/03/05 00:17:18;;;;;;;0.55;0.55;;;;;;;5.25;69.73;101589.47;5146195;28;20057;-80
2023/03/05 00:19:49;;;;;;;1.55;1.25;;;;;;;5.09;69.67;101592.78;5131763;28;20135;-79
2023/03/05 00:22:19;;;;;;;0.30;0.30;;;;;;;5.15;69.63;101585.91;5146802;28;20046;-79
2023/03/05 00:24:50;;;;;;;0.30;0.30;;;;;;;5.33;68.61;101589.53;5147138;28;20030;-80
2023/03/05 00:27:21;;;;;;;1.67;1.58;;;;;;;5.23;68.97;101586.00;5148741;28;20056;-80
2023/03/05 00:29:51;;;;;;;0.30;0.30;;;;;;;5.25;68.48;101592.06;5144053;28;20767;-80
2023/03/05 00:32:22;;;;;;;0.40;0.40;;;;;;;5.22;68.38;101578.16;5142301;28;20035;-79
2023/03/05 00:34:52;;;;;;;0.20;0.20;;;;;;;5.27;68.47;101584.28;5164694;28;20030;-79
2023/03/05 00:37:22;;;;;;;0.20;0.20;;;;;;;5.39;67.31;101578.31;5150074;28;20039;-78
2023/03/05 00:39:53;;;;;;;0.38;0.38;;;;;;;5.38;67.56;101576.56;5129667;28;20030;-81
2023/03/05 00:42:23;;;;;;;0.73;0.70;;;;;;;5.36;67.12;101574.81;5151853;28;20075;-80
2023/03/05 00:44:54;;;;;;;0.20;0.20;;;;;;;5.34;67.34;101573.94;5150121;28;20034;-79
2023/03/05 00:47:24;;;;;;;0.95;0.47;;;;;;;5.38;67.43;101564.41;5125118;28;21063;-81
2023/03/05 00:49:55;;;;;;;0.32;0.32;;;;;;;5.36;67.08;101569.63;5146263;28;20133;-79
2023/03/05 00:52:25;;;;;;;4.50;0.93;;;;;;;5.44;67.28;101561.00;5144653;28;20047;-80
2023/03/05 00:54:56;;;;;;;0.30;0.30;;;;;;;5.49;67.16;101554.13;5137051;28;20114;-79
2023/03/05 00:57:26;;;;;;;0.30;0.30;;;;;;;5.45;67.06;101553.22;5144791;28;20129;-79
2023/03/05 00:59:57;;;;;;;0.32;0.32;;;;;;;5.57;66.92;101554.16;5136063;28;20050;-80
2023/03/05 01:02:27;;;;;;;0.20;0.20;;;;;;;5.61;66.96;101554.19;5140771;28;20027;-80
2023/03/05 01:04:57;;;;;;;0.30;0.30;;;;;;;5.50;66.96;101559.31;5135343;28;20122;-79
2023/03/05 01:07:28;;;;;;;0.30;0.30;;;;;;;5.28;67.72;101558.28;5147872;28;20743;-80
2023/03/05 01:09:59;;;;;;;0.47;0.47;;;;;;;5.41;67.24;101563.59;5144571;28;20094;-80
2023/03/05 01:12:30;;;;;;;0.30;0.30;;;;;;;5.47;66.73;101550.63;5132547;28;20053;-79
2023/03/05 01:15:01;;;;;;;0.30;0.30;;;;;;;5.41;67.18;101564.47;5141657;28;20050;-79
2023/03/05 01:17:31;;;;;;;0.63;0.63;;;;;;;5.27;67.09;101550.47;5162436;28;20057;-80
2023/03/05 01:20:02;;;;;;;0.40;0.40;;;;;;;5.07;67.08;101558.97;5132088;28;20086;-79
2023/03/05 01:22:33;;;;;;;0.20;0.20;;;;;;;5.03;68.06;101550.25;5150888;28;20077;-79
2023/03/05 01:25:04;;;;;;;0.20;0.20;;;;;;;4.83;67.34;101544.88;5146518;28;20658;-80
2023/03/05 01:27:34;;;;;;;0.30;0.30;;;;;;;4.88;66.45;101534.50;5148670;28;20425;-78
2023/03/05 01:30:06;;;;;;;0.30;0.30;;;;;;;4.83;66.39;101531.00;5155303;28;20068;-80
2023/03/05 01:32:37;;;;;;;0.28;0.28;;;;;;;4.66;67.77;101523.91;5149365;28;20058;-79
2023/03/05 01:35:08;;;;;;;0.77;0.77;;;;;;;4.86;67.24;101529.31;5145278;28;20710;-79
2023/03/05 01:37:38;;;;;;;0.30;0.30;;;;;;;4.81;68.05;101522.31;5133473;28;20054;-80
2023/03/05 01:40:11;;;;;;;0.40;0.40;;;;;;;4.98;67.60;101519.84;5145306;28;20061;-80
2023/03/05 01:42:56;;;;;;;0.30;0.30;;;;;;;5.07;67.65;101524.28;5147610;28;20560;-79
2023/03/05 01:45:31;;;;;;;0.30;0.30;;;;;;;5.11;67.40;101520.84;5131805;28;20469;-80
2023/03/05 01:48:01;;;;;;;0.60;0.60;;;;;;;4.85;68.87;101518.88;5148719;28;20127;-81
2023/03/05 01:50:32;;;;;;;0.88;0.50;;;;;;;5.01;68.42;101504.28;5179172;28;20038;-79
2023/03/05 01:53:04;;;;;;;3.50;1.20;;;;;;;4.95;68.85;101515.50;5180443;28;20062;-78
2023/03/05 01:55:36;;;;;;;0.30;0.30;;;;;;;5.08;68.75;101516.50;5149088;28;20676;-80
2023/03/05 01:58:10;;;;;;;0.40;0.40;;;;;;;4.91;69.82;101505.06;5147567;28;20038;-78
2023/03/05 02:00:44;;;;;;;0.30;0.30;;;;;;;4.94;69.57;101508.56;5131845;28;20030;-80
2023/03/05 02:03:15;;;;;;;0.75;0.75;;;;;;;4.95;68.95;101510.31;5163911;28;20037;-78
2023/03/05 02:05:45;;;;;;;0.65;0.65;;;;;;;4.99;69.15;101501.69;5125436;28;20034;-78
2023/03/05 02:08:19;;;;;;;2.38;0.93;;;;;;;4.88;69.66;101498.09;5146155;28;20154;-79
2023/03/05 02:10:52;;;;;;;;;;;;;;;4.96;69.73;101493.84;5164827;28;20077;-79
2023/03/05 02:13:26;;;;;;;0.68;0.68;;;;;;;4.99;69.53;101488.69;5131396;28;19918;-78
2023/03/05 02:15:59;;;;;;;1.98;1.20;;;;;;;4.87;70.12;101485.97;5144676;28;20047;-80
2023/03/05 02:18:29;;;;;;;0.30;0.30;;;;;;;4.85;70.54;101478.16;5139480;28;20045;-79
2023/03/05 02:21:07;;;;;;;0.30;0.30;;;;;;;4.72;70.72;101477.16;5146439;28;20027;-78
2023/03/05 02:23:39;;;;;;;0.60;0.60;;;;;;;4.96;69.61;101475.63;5150781;28;20579;-80
2023/03/05 02:26:09;;;;;;;1.45;1.35;;;;;;;4.68;71.37;101470.19;5146815;28;20042;-79
2023/03/05 02:28:42;;;;;;;0.30;0.30;;;;;;;4.63;70.83;101465.81;5131385;28;20045;-80
2023/03/05 02:31:20;;;;;;;0.40;0.40;;;;;;;4.62;71.33;101464.09;5143335;28;20026;-80
2023/03/05 02:33:52;;;;;;;0.30;0.30;;;;;;;4.61;71.19;101463.19;5141406;28;20038;-78
2023/03/05 02:36:24;;;;;;;0.40;0.40;;;;;;;4.72;70.44;101461.56;5146922;28;20066;-78
2023/03/05 02:38:55;;;;;;;0.85;0.85;;;;;;;4.56;70.80;101454.50;5141211;28;20035;-78
2023/03/05 02:41:26;;;;;;;0.70;0.70;;;;;;;4.60;70.61;101451.03;5145865;28;20065;-79
2023/03/05 02:43:57;;;;;;;0.25;0.25;;;;;;;4.83;69.75;101447.81;5146302;28;20075;-79
2023/03/05 02:46:27;;;;;;;0.55;0.55;;;;;;;4.64;70.51;101442.44;5144348;28;20085;-78
2023/03/05 02:48:58;;;;;;;0.22;0.22;;;;;;;4.79;70.09;101446.91;5121262;28;20066;-79
2023/03/05 02:51:28;;;;;;;0.68;0.68;;;;;;;4.75;70.00;101452.06;5125304;28;20402;-78
2023/03/05 02:53:59;;;;;;;0.43;0.43;;;;;;;4.77;69.89;101445.13;5144229;28;20035;-79
2023/03/05 02:56:29;;;;;;;0.20;0.20;;;;;;;4.53;71.36;101450.13;5126751;28;20038;-78
2023/03/05 02:58:59;;;;;;;0.30;0.30;;;;;;;4.78;69.94;101439.06;5141563;28;20054;-78
2023/03/05 03:01:30;;;;;;;0.30;0.30;;;;;;;4.64;70.44;101436.34;5145042;28;20035;-79
2023/03/05 03:04:00;;;;;;;0.30;0.30;;;;;;;4.76;70.12;101436.47;5144497;28;20274;-79
2023/03/05 03:06:31;;;;;;;0.47;0.47;;;;;;;4.78;69.45;101433.88;5144899;28;20027;-79
2023/03/05 03:09:02;;;;;;;0.35;0.35;;;;;;;4.77;69.91;101434.72;5140350;28;20043;-78
2023/03/05 03:11:32;;;;;;;0.38;0.38;;;;;;;4.88;69.36;101425.28;5127040;28;20041;-79
2023/03/05 03:14:03;;;;;;;0.50;0.50;;;;;;;4.95;68.89;101424.47;5125530;28;20264;-77
2023/03/05 03:16:33;;;;;;;0.30;0.30;;;;;;;4.90;68.45;101423.59;5159387;28;20034;-78
2023/03/05 03:19:04;;;;;;;0.25;0.25;;;;;;;5.05;68.85;101417.59;5125771;28;20031;-79
2023/03/05 03:21:35;;;;;;;0.30;0.30;;;;;;;5.08;68.63;101411.56;5160932;28;20057;-78
2023/03/05 03:24:05;;;;;;;0.30;0.30;;;;;;;5.06;68.41;101413.28;5160554;28;20054;-78
2023/03/05 03:26:36;;;;;;;0.20;0.20;;;;;;;5.14;68.19;101401.22;5146161;28;20026;-79
2023/03/05 03:29:06;;;;;;;0.30;0.30;;;;;;;4.98;68.36;101408.91;5166931;28;20061;-78
2023/03/05 03:31:39;;;;;;;0.30;0.30;;;;;;;5.02;67.73;101402.84;5150365;28;20030;-79
2023/03/05 03:34:14;;;;;;;0.35;0.35;;;;;;;4.89;68.19;101401.03;5164366;28;20046;-79
2023/03/05 03:36:47;;;;;;;0.30;0.30;;;;;;;4.91;68.27;101403.63;5135726;28;20037;-78
2023/03/05 03:39:18;;;;;;;0.30;0.30;;;;;;;4.87;68.32;101401.03;5150232;28;20051;-79
2023/03/05 03:41:52;;;;;;;0.30;0.30;;;;;;;4.86;68.29;101398.41;5129386;28;20545;-79
2023/03/05 03:44:22;;;;;;;0.40;0.40;;;;;;;4.80;68.38;101401.81;5138298;28;20515;-79
2023/03/05 03:46:53;;;;;;;0.55;0.55;;;;;;;4.85;69.29;101394.06;5118377;28;20029;-78
2023/03/05 03:49:25;;;;;;;0.30;0.30;;;;;;;4.56;70.15;101392.09;5150264;28;20501;-79
2023/03/05 03:51:57;;;;;;;0.20;0.20;;;;;;;4.83;69.30;101390.59;5161620;28;20582;-78
2023/03/05 03:54:27;;;;;;;0.20;0.20;;;;;;;4.60;69.67;101388.66;5131713;28;20038;-78
2023/03/05 03:56:58;;;;;;;0.30;0.30;;;;;;;4.63;69.96;101391.31;5147504;28;20035;-79
2023/03/05 03:59:28;;;;;;;0.40;0.40;;;;;;;4.92;68.69;101384.59;5143817;28;21041;-78
2023/03/05 04:01:59;;;;;;;0.60;0.60;;;;;;;5.00;68.03;101375.09;5146288;28;20030;-78
2023/03/05 04:04:29;;;;;;;0.32;0.32;;;;;;;5.05;68.36;101378.59;5160497;28;20033;-78
2023/03/05 04:06:59;;;;;;;0.28;0.28;;;;;;;5.08;68.24;101375.16;5126831;28;20054;-80
2023/03/05 04:09:30;;;;;;;0.40;0.40;;;;;;;5.11;68.08;101377.75;5125952;28;20027;-79
2023/03/05 04:12:00;;;;;;;0.60;0.45;;;;;;;4.99;68.90;101366.44;5119247;28;20966;-78
2023/03/05 04:14:31;;;;;;;0.28;0.28;;;;;;;4.94;69.13;101364.66;5147870;28;20097;-78
2023/03/05 04:17:01;;;;;;;0.25;0.25;;;;;;;5.09;68.61;101361.25;5153990;28;20102;-78
2023/03/05 04:19:32;;;;;;;10.50;1.48;;;;;;;5.14;67.64;101359.59;5154330;28;20046;-79
2023/03/05 04:22:02;;;;;;;1.25;0.95;;;;;;;4.92;69.12;101364.63;5159682;28;20031;-79
2023/03/05 04:24:33;;;;;;;0.30;0.30;;;;;;;4.84;69.42;101359.41;5140905;28;20517;-78
2023/03/05 04:27:04;;;;;;;0.20;0.20;;;;;;;5.09;68.70;101361.25;5146413;28;20280;-79
2023/03/05 04:29:35;;;;;;;0.98;0.98;;;;;;;5.07;68.78;101357.81;5160372;28;20035;-78
2023/03/05 04:32:06;;;;;;;0.50;0.50;;;;;;;5.09;68.58;101356.06;5158948;28;20022;-78
2023/03/05 04:34:37;;;;;;;0.20;0.20;;;;;;;5.10;68.37;101350.91;5150400;28;20035;-79
2023/03/05 04:37:07;;;;;;;0.25;0.25;;;;;;;5.17;68.24;101343.97;5146391;28;20062;-79
2023/03/05 04:39:38;;;;;;;0.30;0.30;;;;;;;5.19;68.33;101344.84;5142805;28;20022;-79
2023/03/05 04:42:09;;;;;;;0.30;0.30;;;;;;;5.20;67.97;101344.88;5135950;28;20034;-79
2023/03/05 04:44:39;;;;;;;0.63;0.63;;;;;;;5.18;68.58;101341.41;5144347;28;20037;-78
2023/03/05 04:47:10;;;;;;;4.57;1.65;;;;;;;5.28;68.01;101342.31;5164519;28;20039;-79
2023/03/05 04:49:40;;;;;;;0.30;0.30;;;;;;;5.32;67.66;101344.06;5165455;28;20495;-79
2023/03/05 04:52:11;;;;;;;6.50;0.85;;;;;;;5.31;67.62;101333.63;5132420;28;20026;-79
2023/03/05 04:54:43;;;;;;;0.28;0.28;;;;;;;5.36;67.52;101332.81;5145029;28;20617;-78
2023/03/05 04:57:13;;;;;;;0.20;0.20;;;;;;;5.32;67.68;101336.25;5128221;28;20070;-78
2023/03/05 04:59:45;;;;;;;0.70;0.70;;;;;;;5.33;67.65;101332.78;5148213;28;20101;-78
2023/03/05 05:02:15;;;;;;;0.20;0.20;;;;;;;5.39;67.21;101326.72;5144959;28;20038;-78
2023/03/05 05:04:46;;;;;;;0.60;0.60;;;;;;;5.31;68.13;101328.44;5146532;28;20050;-77
2023/03/05 05:07:16;;;;;;;0.90;0.75;;;;;;;5.29;67.93;101324.97;5131004;28;20409;-79
2023/03/05 05:09:47;;;;;;;0.60;0.60;;;;;;;5.36;67.86;101326.75;5150066;28;20070;-78
2023/03/05 05:12:17;;;;;;;4.32;0.38;;;;;;;5.32;67.58;101322.38;5135059;28;20129;-80
2023/03/05 05:14:48;;;;;;;0.25;0.25;;;;;;;5.34;67.64;101324.09;5149528;28;20098;-78
2023/03/05 05:17:18;;;;;;;0.60;0.60;;;;;;;5.40;67.57;101319.81;5166357;28;20053;-79
2023/03/05 05:19:49;;;;;;;0.30;0.30;;;;;;;5.28;68.08;101310.22;5140771;28;20034;-79
2023/03/05 05:22:19;;;;;;;0.30;0.30;;;;;;;5.36;67.63;101313.72;5133642;28;20540;-79
2023/03/05 05:24:49;;;;;;;0.38;0.38;;;;;;;5.28;68.47;101311.06;5149661;28;20042;-79
2023/03/05 05:27:20;;;;;;;0.70;0.70;;;;;;;5.31;68.10;101305.91;5151143;28;20038;-79
2023/03/05 05:29:51;;;;;;;0.65;0.65;;;;;;;5.33;68.31;101304.16;5138732;28;20053;-79
2023/03/05 05:32:23;;;;;;;0.30;0.30;;;;;;;5.35;68.18;101305.03;5147711;28;20703;-79
2023/03/05 05:34:55;;;;;;;0.30;0.30;;;;;;;5.40;67.97;101299.00;5142813;28;20039;-79
2023/03/05 05:37:26;;;;;;;0.88;0.82;;;;;;;5.41;67.48;101295.53;5126755;28;20050;-78
2023/03/05 05:39:57;;;;;;;0.30;0.30;;;;;;;5.44;66.84;101296.41;5150241;28;20571;-78
2023/03/05 05:42:28;;;;;;;0.63;0.63;;;;;;;5.51;67.70;101292.06;5151485;28;20047;-79
2023/03/05 05:44:59;;;;;;;0.52;0.52;;;;;;;5.40;67.36;101299.84;5140245;28;20208;-78
2023/03/05 05:47:29;;;;;;;0.30;0.30;;;;;;;5.35;68.11;101292.03;5144277;28;20038;-79
2023/03/05 05:50:00;;;;;;;0.40;0.40;;;;;;;5.16;68.35;101292.84;5151851;28;20062;-79
2023/03/05 05:52:30;;;;;;;0.38;0.38;;;;;;;5.22;69.00;101295.44;5162512;28;20478;-77
2023/03/05 05:55:01;;;;;;;1.75;0.70;;;;;;;5.20;69.47;101298.06;5144961;28;20034;-78
2023/03/05 05:57:31;;;;;;;0.93;0.93;;;;;;;5.08;69.52;101297.13;5148905;28;20061;-79
2023/03/05 06:00:06;;;;;;;0.40;0.38;;;;;;;4.89;71.27;101291.81;5150051;28;20389;-79
2023/03/05 06:02:38;;;;;;;0.30;0.30;;;;;;;4.96;70.05;101292.72;5128195;28;20027;-78
2023/03/05 06:05:11;;;;;;;0.20;0.20;;;;;;;5.01;69.71;101289.25;5147057;28;20086;-79
2023/03/05 06:07:42;;;;;;;0.30;0.30;;;;;;;5.09;69.23;101288.44;5164300;28;20118;-79
2023/03/05 06:10:13;;;;;;;0.93;0.93;;;;;;;5.15;69.52;101293.69;5145051;28;20469;-80
2023/03/05 06:12:43;;;;;;;0.30;0.30;;;;;;;5.07;69.77;101284.97;5162029;28;20034;-79
2023/03/05 06:15:13;;;;;;;1.00;1.00;;;;;;;5.08;69.44;101284.13;5126191;28;20046;-77
2023/03/05 06:17:46;;;;;;;0.20;0.20;;;;;;;5.07;69.54;101292.78;5136825;28;20041;-77
2023/03/05 06:20:17;;;;;;;0.50;0.50;;;;;;;5.11;69.59;101286.72;5127178;28;20035;-77
2023/03/05 06:22:47;;;;;;;0.30;0.30;;;;;;;5.15;69.05;101283.28;5138820;28;20050;-78
2023/03/05 06:25:18;;;;;;;0.22;0.22;;;;;;;4.97;70.33;101274.53;5140773;28;20037;-78
2023/03/05 06:27:48;;;;;;;0.30;0.30;;;;;;;5.00;69.60;101274.53;5121148;28;20050;-79
2023/03/05 06:30:19;;;;;;;0.20;0.20;;;;;;;4.99;70.36;101278.00;5144851;28;20035;-79
2023/03/05 06:32:49;;;;;;;1.63;1.52;;;;;;;4.96;70.05;101275.38;5141079;28;20109;-79
2023/03/05 06:35:20;;;;;;;0.73;0.73;;;;;;;5.09;69.35;101276.31;5142284;28;20045;-79
2023/03/05 06:37:51;;;;;;;3.92;1.15;;;;;;;4.99;69.73;101271.94;5138662;28;20059;-79
2023/03/05 06:40:21;;;;;;;0.30;0.30;;;;;;;5.10;69.25;101269.38;5133664;28;20038;-77
2023/03/05 06:42:52;;;;;;;0.30;0.30;;;;;;;5.11;68.95;101281.50;5146037;28;20502;-77
2023/03/05 06:45:22;;;;;;;0.30;0.30;;;;;;;5.14;68.99;101285.00;5147706;28;20046;-78
2023/03/05 06:47:52;;;;;;;0.30;0.30;;;;;;;5.19;68.60;101282.41;5148074;28;20042;-78
2023/03/05 06:50:23;;;;;;;0.50;0.50;;;;;;;5.02;69.33;101285.81;5143560;28;20034;-78
2023/03/05 06:52:53;;;;;;;0.68;0.68;;;;;;;4.96;69.31;101285.78;5146864;28;20065;-78
2023/03/05 06:55:24;;;;;;;0.30;0.30;;;;;;;4.95;69.11;101288.38;5130832;28;20050;-79
2023/03/05 06:57:54;;;;;;;0.55;0.55;;;;;;;5.06;68.91;101278.03;5145119;28;20045;-80
2023/03/05 07:00:28;;;;;;;0.35;0.35;;;;;;;4.98;68.37;101286.66;5132536;28;20108;-80
2023/03/05 07:02:58;;;;;;;;;;;;;;;5.02;68.84;101285.81;5124450;28;20036;-79
2023/03/05 07:05:29;;;;;;;0.22;0.22;;;;;;;5.10;68.76;101280.66;5140658;28;20298;-78
2023/03/05 07:08:00;;;;;;;0.30;0.30;;;;;;;5.08;68.51;101279.78;5127592;28;20132;-79
2023/03/05 07:10:30;;;;;;;1.05;1.05;;;;;;;5.14;68.37;101271.13;5144741;28;20038;-79
2023/03/05 07:13:01;;;;;;;0.20;0.20;;;;;;;5.13;68.61;101272.00;5155223;28;20034;-80
2023/03/05 07:15:31;;;;;;;0.40;0.40;;;;;;;4.85;69.37;101271.84;5140569;28;20161;-77
2023/03/05 07:18:02;;;;;;;1.00;1.00;;;;;;;4.85;69.67;101271.84;5160157;28;20046;-78
2023/03/05 07:20:34;;;;;;;0.85;0.85;;;;;;;4.83;69.82;101277.03;5154671;28;20030;-79
2023/03/05 07:23:05;;;;;;;0.30;0.30;;;;;;;4.88;69.60;101266.69;5140345;28;20114;-76
2023/03/05 07:25:36;;;;;;;2.03;1.92;;;;;;;4.89;69.34;101268.41;5142508;28;20172;-79
2023/03/05 07:28:07;;;;;;;0.20;0.20;;;;;;;4.91;69.79;101271.91;5123129;28;20065;-80
2023/03/05 07:30:37;;;;;;;0.20;0.20;;;;;;;5.00;69.45;101268.47;5128095;28;20031;-78
2023/03/05 07:33:07;;;;;;;0.73;0.73;;;;;;;5.06;69.12;101272.84;5126741;28;20077;-77
2023/03/05 07:35:40;;;;;;;0.30;0.30;;;;;;;5.11;69.31;101260.69;5154461;28;20023;-77
2023/03/05 07:38:10;;;;;;;0.30;0.30;;;;;;;5.12;69.04;101265.03;5133571;28;20084;-77
2023/03/05 07:40:40;;;;;;;0.40;0.40;;;;;;;4.81;70.90;101264.91;5147889;28;20248;-77
2023/03/05 07:43:11;;;;;;;2.15;1.95;;;;;;;4.96;70.35;101262.38;5159296;28;20039;-78
2023/03/05 07:45:42;;;;;;;0.20;0.20;;;;;;;5.01;70.02;101254.59;5141994;28;20035;-79
2023/03/05 07:48:16;;;;;;;0.40;0.40;;;;;;;5.02;71.16;101259.81;5131695;28;20039;-78
2023/03/05 07:50:47;;;;;;;0.57;0.57;;;;;;;4.94;70.95;101258.03;5146004;28;20444;-78
2023/03/05 07:53:18;;;;;;;0.38;0.38;;;;;;;4.78;72.70;101259.69;5142401;28;21215;-78
2023/03/05 07:55:48;;;;;;;0.40;0.40;;;;;;;5.02;70.41;101252.00;5156987;28;20122;-79
2023/03/05 07:58:19;;;;;;;0.60;0.60;;;;;;;4.88;71.75;101251.94;5118098;28;20042;-79
2023/03/05 08:00:49;;;;;;;0.52;0.52;;;;;;;4.84;72.32;101252.78;5143436;28;20128;-79
2023/03/05 08:03:19;;;;;;;0.30;0.30;;;;;;;4.87;72.06;101246.72;5147897;28;20043;-77
2023/03/05 08:05:50;;;;;;;1.40;1.30;;;;;;;4.77;72.95;101252.72;5156474;28;20035;-78
2023/03/05 08:08:20;;;;;;;0.40;0.40;;;;;;;4.86;72.23;101247.59;5150160;28;20050;-78
2023/03/05 08:10:51;;;;;;;0.30;0.30;;;;;;;4.86;72.74;101247.59;5145035;28;20038;-77
2023/03/05 08:13:21;;;;;;;0.52;0.52;;;;;;;4.94;72.97;101239.84;5122253;28;20570;-77
2023/03/05 08:15:52;;;;;;;0.65;0.65;;;;;;;4.88;72.93;101238.06;5144646;28;20089;-78
2023/03/05 08:18:22;;;;;;;0.82;0.82;;;;;;;4.89;72.59;101237.22;5162648;28;20090;-78
2023/03/05 08:20:53;;;;;;;1.77;1.65;;;;;;;4.94;72.63;101240.69;5146162;28;20654;-77
2023/03/05 08:23:23;;;;;;;0.75;0.75;;;;;;;5.01;72.64;101236.41;5141788;28;20162;-78
2023/03/05 08:25:54;;;;;;;0.60;0.60;;;;;;;5.00;72.95;101243.31;5133907;28;20222;-77
2023/03/05 08:28:25;;;;;;;0.28;0.28;;;;;;;5.03;73.19;101232.94;5155173;28;20034;-77
2023/03/05 08:30:55;;;;;;;0.30;0.30;;;;;;;5.06;72.75;101226.00;5145705;28;20106;-77
2023/03/05 08:33:25;;;;;;;0.28;0.28;;;;;;;5.13;72.04;101217.38;5130559;28;20062;-77
2023/03/05 08:35:56;;;;;;;0.63;0.63;;;;;;;5.08;72.44;101221.69;5142168;28;20023;-77
2023/03/05 08:38:26;;;;;;;0.40;0.40;;;;;;;5.07;72.70;101217.34;5163318;28;20034;-78
2023/03/05 08:40:57;;;;;;;0.45;0.45;;;;;;;5.12;72.73;101218.22;5144989;28;20062;-79
2023/03/05 08:43:28;;;;;;;0.28;0.28;;;;;;;5.30;71.67;101220.88;5143245;28;20085;-80
2023/03/05 08:46:00;;;;;;;0.40;0.40;;;;;;;5.41;71.23;101207.91;5166451;28;20045;-80
2023/03/05 08:48:30;;;;;;;0.90;0.90;;;;;;;5.40;71.82;101202.69;5153866;28;20057;-80
2023/03/05 08:51:11;;;;;;;0.90;0.90;;;;;;;5.35;72.03;101203.53;5140398;28;20083;-80
2023/03/05 08:53:43;;;;;;;1.55;1.38;;;;;;;5.49;71.27;101197.53;5146744;28;20034;-79
2023/03/05 08:56:14;;;;;;;1.02;0.77;;;;;;;5.38;71.14;101204.44;5141127;28;20077;-79
2023/03/05 08:58:46;;;;;;;0.40;0.40;;;;;;;5.47;70.42;101207.03;5147303;28;20921;-80
2023/03/05 09:01:16;;;;;;;0.30;0.30;;;;;;;5.49;70.76;101200.13;5153135;28;20238;-79
2023/03/05 09:03:46;;;;;;;0.30;0.30;;;;;;;5.41;71.21;101201.84;5143524;28;20047;-78
2023/03/05 09:06:17;;;;;;;0.30;0.30;;;;;;;5.56;70.63;101196.66;5169946;28;20287;-78
2023/03/05 09:08:47;;;;;;;1.02;1.02;;;;;;;5.47;71.77;101200.09;5173365;28;20085;-79
2023/03/05 09:11:18;;;;;;;0.93;0.93;;;;;;;5.63;71.94;101193.19;5150263;28;20088;-78
2023/03/05 09:13:48;;;;;;;0.30;0.30;;;;;;;5.61;71.94;101188.84;5124317;28;20031;-78
2023/03/05 09:16:20;;;;;;;0.70;0.70;;;;;;;5.76;70.96;101180.16;5121621;28;20035;-79
2023/03/05 09:18:50;;;;;;;1.08;1.08;;;;;;;5.69;71.63;101194.94;5146214;28;20065;-78
2023/03/05 09:21:21;;;;;;;0.43;0.43;;;;;;;5.67;70.76;101186.25;5146812;28;20035;-79
2023/03/05 09:23:51;;;;;;;0.40;0.40;;;;;;;5.46;71.11;101185.34;5144614;28;20074;-78
2023/03/05 09:26:22;;;;;;;0.30;0.30;;;;;;;5.63;71.77;101182.78;5145783;28;20046;-79
2023/03/05 09:28:52;;;;;;;0.40;0.40;;;;;;;5.72;71.29;101181.03;5128200;28;20058;-78
2023/03/05 09:31:23;;;;;;;0.30;0.30;;;;;;;5.72;72.37;101173.22;5133710;28;20035;-81
2023/03/05 09:33:53;;;;;;;0.40;0.40;;;;;;;5.80;72.04;101174.97;5127209;28;20066;-79
2023/03/05 09:36:26;;;;;;;1.35;0.63;;;;;;;5.92;70.87;101168.03;5142142;28;20783;-79
2023/03/05 09:38:57;;;;;;;1.52;1.08;;;;;;;5.99;71.29;101170.63;5126486;28;20161;-80
2023/03/05 09:41:35;;;;;;;0.65;0.65;;;;;;;5.71;72.30;101171.50;5141200;28;20113;-77
2023/03/05 09:44:26;;;;;;;0.35;0.35;;;;;;;5.76;72.57;101160.22;5144992;28;20035;-78
2023/03/05 09:47:34;;;;;;;0.95;0.95;;;;;;;5.78;72.65;101170.63;5158702;28;20167;-79
2023/03/05 09:50:19;;;;;;;0.35;0.35;;;;;;;5.59;73.04;101152.38;5145640;28;20045;-78
2023/03/05 09:52:56;;;;;;;0.60;0.60;;;;;;;5.56;72.98;101165.41;5148962;28;20034;-80
2023/03/05 09:55:30;;;;;;;0.80;0.80;;;;;;;5.71;72.82;101158.47;5148959;28;20026;-79
2023/03/05 09:58:36;;;;;;;0.55;0.55;;;;;;;5.72;72.33;101152.41;5144058;28;20035;-79
2023/03/05 10:01:09;;;;;;;1.55;1.15;;;;;;;5.68;72.18;101157.59;5140220;28;20427;-78
2023/03/05 10:03:58;;;;;;;0.40;0.40;;;;;;;5.80;71.11;101148.91;5145968;28;20089;-80
2023/03/05 10:07:11;;;;;;;0.40;0.40;;;;;;;5.80;70.80;101151.53;5144276;28;20625;-78
2023/03/05 10:09:47;;;;;;;1.27;0.90;;;;;;;5.74;71.17;101154.13;5149051;28;20043;-79
2023/03/05 10:12:37;;;;;;;0.40;0.40;;;;;;;5.66;71.79;101146.31;5134452;28;20026;-81
2023/03/05 10:15:25;;;;;;;0.30;0.30;;;;;;;5.57;71.47;101155.84;5149553;28;20039;-81
2023/03/05 10:18:16;;;;;;;1.00;1.00;;;;;;;5.60;72.02;101146.31;5166633;28;20039;-81
2023/03/05 10:20:56;;;;;;;0.68;0.68;;;;;;;5.59;71.64;101141.13;5142088;28;20057;-81
2023/03/05 10:23:32;;;;;;;1.20;1.20;;;;;;;5.65;71.74;101139.41;5148250;28;20034;-80
2023/03/05 10:26:03;;;;;;;0.52;0.52;;;;;;;5.72;71.92;101136.78;5128792;28;20492;-78
2023/03/05 10:28:42;;;;;;;0.75;0.75;;;;;;;5.94;70.75;101130.69;5143850;28;20038;-79
2023/03/05 10:31:47;;;;;;;0.55;0.55;;;;;;;5.86;71.22;101127.22;5150296;28;20189;-79
2023/03/05 10:34:48;;;;;;;0.32;0.32;;;;;;;5.67;71.57;101126.38;5129095;28;20035;-79
2023/03/05 10:37:56;;;;;;;0.40;0.40;;;;;;;5.78;71.39;101127.25;5146204;28;20034;-80
2023/03/05 10:40:38;;;;;;;0.40;0.40;;;;;;;5.61;71.85;101119.41;5147040;28;20046;-80
2023/03/05 10:43:09;;;;;;;0.65;0.65;;;;;;;5.82;71.23;101120.28;5158839;28;20063;-79
2023/03/05 10:45:43;;;;;;;0.25;0.25;;;;;;;5.72;71.85;101116.81;5165226;28;20026;-81
2023/03/05 10:48:21;;;;;;;0.38;0.38;;;;;;;5.81;71.94;101119.41;5140581;28;20125;-80
2023/03/05 10:51:01;;;;;;;0.38;0.38;;;;;;;5.74;72.35;101119.44;5138903;28;20488;-77
2023/03/05 10:53:55;;;;;;;0.30;0.30;;;;;;;5.80;71.91;101116.81;5126687;28;20041;-77
2023/03/05 10:56:27;;;;;;;1.05;1.05;;;;;;;5.79;72.38;101105.50;5153939;28;20026;-79
2023/03/05 10:58:58;;;;;;;0.57;0.57;;;;;;;5.44;72.48;101105.53;5148020;28;20585;-80
2023/03/05 11:01:30;;;;;;;3.40;0.70;;;;;;;5.89;71.01;101103.78;5147685;28;20037;-77
2023/03/05 11:04:06;;;;;;;0.50;0.50;;;;;;;5.89;71.29;101106.38;5140133;28;20033;-80
2023/03/05 11:06:47;;;;;;;0.30;0.30;;;;;;;5.94;72.70;101106.38;5146717;28;20605;-81
2023/03/05 11:09:35;;;;;;;0.55;0.55;;;;;;;5.92;71.81;101095.94;5128797;28;20053;-80
2023/03/05 11:12:26;;;;;;;0.40;0.40;;;;;;;6.02;70.85;101090.75;5126273;28;20135;-81
2023/03/05 11:15:25;;;;;;;0.30;0.30;;;;;;;6.03;71.06;101092.50;5150612;28;20065;-82
2023/03/05 11:18:05;;;;;;;0.40;0.40;;;;;;;5.82;71.14;101092.50;5139298;28;20054;-80
2023/03/05 11:20:36;;;;;;;0.40;0.40;;;;;;;5.97;71.20;101089.00;5148287;28;20084;-79
2023/03/05 11:23:09;;;;;;;0.30;0.30;;;;;;;5.78;70.16;101093.38;5146998;28;20043;-79
2023/03/05 11:25:52;;;;;;;;;;;;;;;5.90;69.65;101081.19;5181967;28;20109;-79
2023/03/05 11:28:37;;;;;;;1.25;1.15;;;;;;;5.98;69.64;101080.34;5148992;28;19917;-80
2023/03/05 11:31:14;;;;;;;0.40;0.40;;;;;;;6.13;69.56;101078.59;5127366;28;20724;-81
2023/03/05 11:33:55;;;;;;;0.30;0.30;;;;;;;6.21;69.15;101081.16;5152137;28;20031;-80
2023/03/05 11:37:03;;;;;;;0.30;0.30;;;;;;;6.06;68.13;101076.88;5134562;28;20085;-80
2023/03/05 11:39:39;;;;;;;0.32;0.32;;;;;;;5.89;68.20;101075.13;5115550;28;20038;-80
2023/03/05 11:42:18;;;;;;;0.75;0.75;;;;;;;6.23;67.55;101076.81;5140877;28;20037;-81
2023/03/05 11:44:53;;;;;;;0.30;0.30;;;;;;;6.29;66.95;101066.34;5125654;28;20567;-81
2023/03/05 11:47:38;;;;;;;0.30;0.30;;;;;;;6.30;67.42;101058.53;5127346;28;20088;-81
2023/03/05 11:50:15;;;;;;;0.40;0.40;;;;;;;6.40;67.97;101053.28;5128399;28;20485;-80
2023/03/05 11:52:48;;;;;;;0.30;0.30;;;;;;;6.10;66.20;101047.31;5152209;28;20035;-80
2023/03/05 11:55:26;;;;;;;0.30;0.30;;;;;;;6.24;66.65;101048.13;5154617;28;20034;-80
2023/03/05 11:58:18;;;;;;;0.30;0.30;;;;;;;6.21;66.84;101045.56;5144178;28;20147;-80
2023/03/05 12:00:49;;;;;;;0.30;0.30;;;;;;;6.43;66.35;101037.63;5134342;28;20469;-80
2023/03/05 12:03:32;;;;;;;0.20;0.20;;;;;;;6.39;66.11;101030.72;5146241;28;20078;-80